Time;durP1;ratioP1;P1;durP2;ratioP2;P2;SDS_P1;SDS_P2;PMS_P1;PMS_P2;Temp;Humidity;BMP_temperature;BMP_pressure;BME280_temperature;BME280_humidity;BME280_pressure;Samples;Min_cycle;Max_cycle;Signal;HPM_P1;HPM_P2
2022/10/12 00:01:07;;;;;;;19.13;10.95;;;;;;;;;;5095845;28;20203;-58
2022/10/12 00:03:35;;;;;;;22.23;11.93;;;;;;;;;;5095896;28;20230;-57
2022/10/12 00:06:08;;;;;;;19.70;10.65;;;;;;;;;;5096321;28;20225;-58
2022/10/12 00:08:36;;;;;;;22.90;11.85;;;;;;;;;;5096066;28;20214;-58
2022/10/12 00:11:05;;;;;;;18.75;10.88;;;;;;;;;;5095589;28;20540;-58
2022/10/12 00:13:32;;;;;;;25.70;11.30;;;;;;;;;;5095529;28;20199;-58
2022/10/12 00:16:04;;;;;;;23.42;10.15;;;;;;;;;;5095475;28;20206;-58
2022/10/12 00:18:31;;;;;;;19.75;10.43;;;;;;;;;;5095534;28;20199;-56
2022/10/12 00:21:02;;;;;;;18.33;10.15;;;;;;;;;;5095522;28;20203;-57
2022/10/12 00:23:30;;;;;;;21.30;11.10;;;;;;;;;;5095450;28;20248;-57
2022/10/12 00:26:06;;;;;;;22.08;12.38;;;;;;;;;;5095781;28;20256;-58
2022/10/12 00:28:34;;;;;;;24.70;11.98;;;;;;;;;;5095359;28;20202;-58
2022/10/12 00:31:05;;;;;;;26.00;13.27;;;;;;;;;;5095223;28;20202;-57
2022/10/12 00:33:32;;;;;;;21.45;10.88;;;;;;;;;;5096018;28;20221;-58
2022/10/12 00:36:10;;;;;;;24.42;11.52;;;;;;;;;;5095192;28;20207;-58
2022/10/12 00:38:37;;;;;;;20.15;10.95;;;;;;;;;;5095422;28;20198;-58
2022/10/12 00:41:04;;;;;;;20.65;10.10;;;;;;;;;;5094975;28;20541;-58
2022/10/12 00:43:35;;;;;;;15.77;9.35;;;;;;;;;;5095950;28;20206;-58
2022/10/12 00:46:05;;;;;;;18.70;9.55;;;;;;;;;;5095442;28;20202;-57
2022/10/12 00:48:32;;;;;;;17.60;9.35;;;;;;;;;;5077551;28;20283;-58
2022/10/12 00:51:00;;;;;;;21.02;9.57;;;;;;;;;;5077679;28;20202;-57
2022/10/12 00:53:30;;;;;;;16.63;9.25;;;;;;;;;;5094136;28;20535;-57
2022/10/12 00:56:00;;;;;;;19.85;9.52;;;;;;;;;;5095778;28;20203;-57
2022/10/12 00:58:30;;;;;;;22.13;10.93;;;;;;;;;;5095528;28;20637;-57
2022/10/12 01:01:02;;;;;;;26.45;14.63;;;;;;;;;;5077765;28;20206;-57
2022/10/12 01:03:30;;;;;;;26.02;13.65;;;;;;;;;;5094852;28;20239;-57
2022/10/12 01:05:58;;;;;;;25.27;13.02;;;;;;;;;;5095374;28;20202;-57
2022/10/12 01:08:27;;;;;;;21.80;11.85;;;;;;;;;;5094812;28;20636;-57
2022/10/12 01:10:54;;;;;;;24.83;11.73;;;;;;;;;;5095017;28;20255;-57
2022/10/12 01:13:22;;;;;;;19.35;10.32;;;;;;;;;;5094739;28;20222;-58
2022/10/12 01:15:56;;;;;;;20.20;10.32;;;;;;;;;;5094960;28;20281;-57
2022/10/12 01:18:41;;;;;;;23.77;10.85;;;;;;;;;;5077512;28;20183;-57
2022/10/12 01:21:18;;;;;;;14.38;8.48;;;;;;;;;;5077695;28;20203;-57
2022/10/12 01:24:10;;;;;;;17.05;8.95;;;;;;;;;;5094660;28;20194;-57
2022/10/12 01:26:59;;;;;;;16.63;9.70;;;;;;;;;;5077355;28;20202;-57
2022/10/12 01:29:51;;;;;;;19.13;9.82;;;;;;;;;;5094913;28;20187;-57
2022/10/12 01:32:25;;;;;;;23.02;10.18;;;;;;;;;;5094896;28;20283;-57
2022/10/12 01:35:01;;;;;;;21.75;10.60;;;;;;;;;;5094697;28;20229;-57
2022/10/12 01:37:41;;;;;;;20.10;11.60;;;;;;;;;;5095250;28;20205;-55
2022/10/12 01:40:23;;;;;;;20.90;11.27;;;;;;;;;;5033011;28;20201;-57
2022/10/12 01:42:52;;;;;;;23.52;12.80;;;;;;;;;;5016615;28;20231;-56
2022/10/12 01:45:19;;;;;;;25.92;11.35;;;;;;;;;;5032775;28;20208;-57
2022/10/12 01:47:51;;;;;;;26.88;11.73;;;;;;;;;;5033094;28;20201;-57
2022/10/12 01:50:21;;;;;;;22.42;12.45;;;;;;;;;;5032861;28;20197;-56
2022/10/12 01:52:59;;;;;;;25.58;11.63;;;;;;;;;;5033394;28;20240;-55
2022/10/12 01:55:37;;;;;;;26.15;12.35;;;;;;;;;;5016767;28;20267;-57
2022/10/12 01:58:19;;;;;;;25.60;12.57;;;;;;;;;;5032773;28;20219;-57
2022/10/12 02:01:04;;;;;;;30.75;12.90;;;;;;;;;;5032818;28;20204;-57
2022/10/12 02:03:55;;;;;;;23.30;11.48;;;;;;;;;;5032474;28;20236;-57
2022/10/12 02:06:27;;;;;;;24.60;12.18;;;;;;;;;;5025746;28;20643;-56
2022/10/12 02:08:59;;;;;;;27.20;12.75;;;;;;;;;;5020069;28;20209;-57
2022/10/12 02:11:26;;;;;;;29.33;12.85;;;;;;;;;;5073794;28;20199;-57
2022/10/12 02:13:56;;;;;;;20.05;11.15;;;;;;;;;;5080750;28;20287;-57
2022/10/12 02:16:27;;;;;;;25.88;11.82;;;;;;;;;;5080311;28;20659;-57
2022/10/12 02:18:55;;;;;;;25.10;12.05;;;;;;;;;;5063872;28;20211;-56
2022/10/12 02:21:25;;;;;;;25.42;11.90;;;;;;;;;;5080489;28;20644;-57
2022/10/12 02:23:54;;;;;;;24.13;12.27;;;;;;;;;;5081041;28;20234;-57
2022/10/12 02:26:21;;;;;;;21.90;11.38;;;;;;;;;;5097950;28;20199;-57
2022/10/12 02:28:49;;;;;;;27.65;12.05;;;;;;;;;;5080401;28;20251;-57
2022/10/12 02:31:34;;;;;;;22.98;10.88;;;;;;;;;;5079852;28;20203;-58
2022/10/12 02:34:17;;;;;;;23.73;11.60;;;;;;;;;;5063423;28;20272;-57
2022/10/12 02:37:01;;;;;;;21.95;11.00;;;;;;;;;;5098041;28;20289;-57
2022/10/12 02:39:44;;;;;;;25.00;11.32;;;;;;;;;;5097391;28;20187;-57
2022/10/12 02:42:16;;;;;;;23.30;10.90;;;;;;;;;;5080241;28;20267;-57
2022/10/12 02:44:43;;;;;;;22.33;11.77;;;;;;;;;;5097493;28;20213;-57
2022/10/12 02:47:11;;;;;;;20.45;11.23;;;;;;;;;;5097413;28;20290;-57
2022/10/12 02:49:39;;;;;;;20.08;11.25;;;;;;;;;;5080065;28;20203;-56
2022/10/12 02:52:06;;;;;;;21.33;11.52;;;;;;;;;;5079668;28;20287;-57
2022/10/12 02:54:33;;;;;;;24.83;11.63;;;;;;;;;;5080172;28;20221;-58
2022/10/12 02:57:00;;;;;;;19.13;11.25;;;;;;;;;;5097289;28;20229;-58
2022/10/12 02:59:28;;;;;;;21.90;10.95;;;;;;;;;;5097315;28;20242;-57
2022/10/12 03:01:54;;;;;;;24.20;10.90;;;;;;;;;;5096693;28;20529;-56
2022/10/12 03:04:21;;;;;;;19.52;11.27;;;;;;;;;;5096907;28;20241;-57
2022/10/12 03:06:48;;;;;;;25.05;12.65;;;;;;;;;;5097095;28;20284;-57
2022/10/12 03:09:15;;;;;;;22.70;11.25;;;;;;;;;;5097765;28;20210;-57
2022/10/12 03:11:42;;;;;;;27.73;12.77;;;;;;;;;;5097096;28;20194;-57
2022/10/12 03:14:16;;;;;;;21.63;11.95;;;;;;;;;;5097107;28;20222;-57
2022/10/12 03:16:45;;;;;;;24.35;13.00;;;;;;;;;;5096629;28;20179;-57
2022/10/12 03:19:12;;;;;;;23.73;12.77;;;;;;;;;;5096756;28;20214;-57
2022/10/12 03:21:40;;;;;;;27.13;13.10;;;;;;;;;;5096978;28;20233;-57
2022/10/12 03:24:07;;;;;;;23.70;12.18;;;;;;;;;;5097108;28;20217;-57
2022/10/12 03:26:34;;;;;;;22.95;12.50;;;;;;;;;;5096594;28;20574;-57
2022/10/12 03:29:01;;;;;;;21.77;11.88;;;;;;;;;;5096430;28;20221;-57
2022/10/12 03:31:28;;;;;;;20.85;12.20;;;;;;;;;;5090390;28;20203;-58
2022/10/12 03:33:55;;;;;;;22.00;11.15;;;;;;;;;;5084897;28;20227;-57
2022/10/12 03:36:21;;;;;;;21.58;11.73;;;;;;;;;;5085950;28;20199;-57
2022/10/12 03:38:48;;;;;;;17.50;10.20;;;;;;;;;;5087814;28;20211;-57
2022/10/12 03:41:15;;;;;;;18.55;10.15;;;;;;;;;;5090481;28;20211;-57
2022/10/12 03:43:42;;;;;;;21.58;10.63;;;;;;;;;;5085694;28;20208;-57
2022/10/12 03:46:09;;;;;;;21.77;10.55;;;;;;;;;;5082893;28;20211;-57
2022/10/12 03:48:36;;;;;;;17.60;10.10;;;;;;;;;;5080376;28;20627;-57
2022/10/12 03:51:04;;;;;;;16.92;8.65;;;;;;;;;;5083008;28;20222;-57
2022/10/12 03:53:31;;;;;;;22.77;9.93;;;;;;;;;;5083463;28;20234;-57
2022/10/12 03:55:58;;;;;;;22.05;10.70;;;;;;;;;;5079027;28;20527;-57
2022/10/12 03:58:25;;;;;;;23.67;11.05;;;;;;;;;;5087635;28;20660;-57
2022/10/12 04:00:53;;;;;;;22.00;11.63;;;;;;;;;;5089621;28;20253;-57
2022/10/12 04:03:20;;;;;;;20.42;10.63;;;;;;;;;;5087354;28;20245;-58
2022/10/12 04:05:54;;;;;;;23.10;13.38;;;;;;;;;;5088248;28;20642;-56
2022/10/12 04:08:22;;;;;;;20.88;11.18;;;;;;;;;;5088926;28;20257;-57
2022/10/12 04:10:49;;;;;;;26.40;11.55;;;;;;;;;;5094649;28;20649;-57
2022/10/12 04:13:16;;;;;;;22.02;10.40;;;;;;;;;;5094502;28;20254;-58
2022/10/12 04:15:44;;;;;;;33.17;13.90;;;;;;;;;;5094918;28;20226;-57
2022/10/12 04:18:11;;;;;;;42.75;21.05;;;;;;;;;;5094787;28;20242;-58
2022/10/12 04:20:38;;;;;;;41.28;21.60;;;;;;;;;;5094358;28;20234;-57
2022/10/12 04:23:05;;;;;;;17.27;9.50;;;;;;;;;;5077003;28;20231;-57
2022/10/12 04:25:32;;;;;;;16.58;9.00;;;;;;;;;;5094499;28;20223;-56
2022/10/12 04:27:59;;;;;;;19.98;10.48;;;;;;;;;;5093953;28;20226;-57
2022/10/12 04:30:26;;;;;;;19.70;10.10;;;;;;;;;;5094040;28;20222;-59
2022/10/12 04:32:54;;;;;;;19.25;9.98;;;;;;;;;;5076234;28;20248;-57
2022/10/12 04:35:21;;;;;;;19.02;10.00;;;;;;;;;;5094123;28;20222;-56
2022/10/12 04:37:48;;;;;;;19.67;11.02;;;;;;;;;;5094352;28;20242;-56
2022/10/12 04:40:15;;;;;;;22.88;11.35;;;;;;;;;;5075862;28;20230;-57
2022/10/12 04:42:42;;;;;;;25.10;10.82;;;;;;;;;;5074342;28;20227;-57
2022/10/12 04:45:09;;;;;;;61.88;17.17;;;;;;;;;;5072926;28;20243;-57
2022/10/12 04:47:36;;;;;;;71.28;22.38;;;;;;;;;;5073070;28;20616;-58
2022/10/12 04:50:04;;;;;;;40.92;16.17;;;;;;;;;;5081398;28;20233;-57
2022/10/12 04:52:31;;;;;;;32.90;12.95;;;;;;;;;;5092406;28;20631;-57
2022/10/12 04:54:59;;;;;;;24.63;11.52;;;;;;;;;;5091303;28;20218;-58
2022/10/12 04:57:25;;;;;;;22.20;11.20;;;;;;;;;;5090989;28;20218;-57
2022/10/12 04:59:53;;;;;;;21.52;11.27;;;;;;;;;;5092041;28;20652;-57
2022/10/12 05:02:20;;;;;;;21.75;11.07;;;;;;;;;;5092694;28;20231;-51
2022/10/12 05:04:46;;;;;;;24.65;12.68;;;;;;;;;;5092907;28;20280;-56
2022/10/12 05:07:14;;;;;;;24.48;12.80;;;;;;;;;;5092840;28;20205;-53
2022/10/12 05:09:40;;;;;;;26.50;12.73;;;;;;;;;;5092605;28;20201;-54
2022/10/12 05:12:08;;;;;;;25.98;13.25;;;;;;;;;;5094407;28;20199;-49
2022/10/12 05:14:35;;;;;;;22.13;12.38;;;;;;;;;;5092891;28;20657;-51
2022/10/12 05:17:02;;;;;;;21.42;12.43;;;;;;;;;;5094602;28;20255;-51
2022/10/12 05:19:29;;;;;;;22.83;11.40;;;;;;;;;;5094581;28;20206;-49
2022/10/12 05:21:56;;;;;;;31.65;12.88;;;;;;;;;;5094783;28;20547;-51
2022/10/12 05:24:23;;;;;;;30.30;15.20;;;;;;;;;;5094618;28;20199;-49
2022/10/12 05:26:50;;;;;;;23.25;12.65;;;;;;;;;;5094447;28;20531;-50
2022/10/12 05:29:17;;;;;;;31.15;14.95;;;;;;;;;;5094605;28;20625;-50
2022/10/12 05:31:44;;;;;;;23.70;13.35;;;;;;;;;;5095173;28;20218;-49
2022/10/12 05:34:11;;;;;;;21.65;11.23;;;;;;;;;;5094360;28;20218;-51
2022/10/12 05:36:38;;;;;;;25.55;11.10;;;;;;;;;;5094433;28;20229;-50
2022/10/12 05:39:05;;;;;;;18.48;10.73;;;;;;;;;;5094635;28;20219;-50
2022/10/12 05:41:32;;;;;;;24.63;12.00;;;;;;;;;;5098281;28;20206;-51
2022/10/12 05:43:59;;;;;;;22.15;11.00;;;;;;;;;;5099188;28;20199;-50
2022/10/12 05:46:26;;;;;;;17.48;11.88;;;;;;;;;;5098780;28;20209;-51
2022/10/12 05:48:53;;;;;;;19.63;11.45;;;;;;;;;;5046905;28;20202;-55
2022/10/12 05:51:20;;;;;;;21.20;11.13;;;;;;;;;;5098534;28;20199;-54
2022/10/12 05:53:54;;;;;;;22.88;11.80;;;;;;;;;;5098066;28;20264;-54
2022/10/12 05:56:21;;;;;;;23.40;11.10;;;;;;;;;;5098126;28;20210;-50
2022/10/12 05:58:48;;;;;;;18.88;10.88;;;;;;;;;;5098367;28;20199;-50
2022/10/12 06:01:15;;;;;;;22.27;11.13;;;;;;;;;;5098172;28;20602;-49
2022/10/12 06:03:42;;;;;;;23.35;12.07;;;;;;;;;;5098469;28;20238;-50
2022/10/12 06:06:09;;;;;;;20.75;11.20;;;;;;;;;;5098278;28;20206;-49
2022/10/12 06:08:36;;;;;;;22.42;11.38;;;;;;;;;;5098029;28;20625;-50
2022/10/12 06:11:03;;;;;;;22.08;12.30;;;;;;;;;;5098128;28;20199;-49
2022/10/12 06:13:30;;;;;;;21.85;11.57;;;;;;;;;;5098171;28;20287;-50
2022/10/12 06:15:58;;;;;;;21.67;12.43;;;;;;;;;;5098135;28;20210;-50
2022/10/12 06:18:24;;;;;;;26.33;12.48;;;;;;;;;;5097878;28;20215;-49
2022/10/12 06:20:53;;;;;;;22.27;13.52;;;;;;;;;;5097708;28;20502;-50
2022/10/12 06:23:40;;;;;;;26.50;13.13;;;;;;;;;;5097915;28;20203;-50
2022/10/12 06:26:10;;;;;;;24.15;14.30;;;;;;;;;;5097583;28;20219;-52
2022/10/12 06:28:37;;;;;;;24.50;12.18;;;;;;;;;;5098039;28;20212;-50
2022/10/12 06:31:04;;;;;;;19.40;12.15;;;;;;;;;;5097507;28;20225;-50
2022/10/12 06:33:31;;;;;;;21.67;11.05;;;;;;;;;;5097787;28;20218;-49
2022/10/12 06:35:59;;;;;;;21.98;12.20;;;;;;;;;;5097321;28;20664;-50
2022/10/12 06:38:25;;;;;;;19.77;11.52;;;;;;;;;;5097560;28;20641;-49
2022/10/12 06:40:53;;;;;;;21.80;12.10;;;;;;;;;;5097398;28;20775;-50
2022/10/12 06:43:21;;;;;;;18.98;11.43;;;;;;;;;;5097289;28;20220;-49
2022/10/12 06:45:49;;;;;;;22.75;12.45;;;;;;;;;;5097555;28;20203;-49
2022/10/12 06:48:15;;;;;;;24.70;11.77;;;;;;;;;;5097552;28;20199;-49
2022/10/12 06:50:45;;;;;;;34.80;12.55;;;;;;;;;;5097389;28;20197;-50
2022/10/12 06:53:12;;;;;;;21.75;11.98;;;;;;;;;;5096376;28;20222;-50
2022/10/12 06:55:40;;;;;;;25.13;12.52;;;;;;;;;;5097451;28;20262;-49
2022/10/12 06:58:07;;;;;;;21.65;12.52;;;;;;;;;;5096940;28;20256;-49
2022/10/12 07:00:34;;;;;;;18.45;11.63;;;;;;;;;;5063051;28;20671;-50
2022/10/12 07:03:01;;;;;;;21.80;12.48;;;;;;;;;;5097328;28;20313;-50
2022/10/12 07:05:29;;;;;;;22.73;12.13;;;;;;;;;;5097303;28;20194;-49
2022/10/12 07:07:56;;;;;;;24.10;12.35;;;;;;;;;;5097126;28;20199;-49
2022/10/12 07:10:24;;;;;;;24.27;12.25;;;;;;;;;;5097075;28;20203;-51
2022/10/12 07:12:51;;;;;;;24.50;11.73;;;;;;;;;;5096739;28;20258;-49
2022/10/12 07:15:18;;;;;;;22.40;12.07;;;;;;;;;;5096688;28;20268;-50
2022/10/12 07:17:45;;;;;;;21.65;12.23;;;;;;;;;;5096897;28;20567;-50
2022/10/12 07:20:12;;;;;;;27.35;13.43;;;;;;;;;;5097522;28;20203;-49
2022/10/12 07:22:39;;;;;;;27.88;12.57;;;;;;;;;;5096511;28;20260;-50
2022/10/12 07:25:07;;;;;;;20.48;11.85;;;;;;;;;;5096379;28;20543;-51
2022/10/12 07:27:34;;;;;;;19.45;10.82;;;;;;;;;;5096711;28;20305;-49
2022/10/12 07:30:01;;;;;;;25.50;12.20;;;;;;;;;;5097091;28;20194;-52
2022/10/12 07:32:28;;;;;;;22.40;11.65;;;;;;;;;;5096742;28;20198;-50
2022/10/12 07:34:55;;;;;;;24.15;12.07;;;;;;;;;;5096279;28;20256;-50
2022/10/12 07:37:22;;;;;;;19.27;12.05;;;;;;;;;;5096611;28;20298;-50
2022/10/12 07:39:49;;;;;;;24.60;12.85;;;;;;;;;;5096162;28;20198;-49
2022/10/12 07:42:17;;;;;;;30.77;14.65;;;;;;;;;;5096801;28;20544;-49
2022/10/12 07:44:45;;;;;;;28.48;15.95;;;;;;;;;;5095915;28;20206;-49
2022/10/12 07:47:15;;;;;;;33.33;16.38;;;;;;;;;;5096425;28;20203;-50
2022/10/12 07:49:42;;;;;;;29.98;14.25;;;;;;;;;;5096355;28;20222;-55
2022/10/12 07:52:09;;;;;;;30.40;14.68;;;;;;;;;;5096247;28;20637;-50
2022/10/12 07:54:36;;;;;;;28.75;16.00;;;;;;;;;;5096726;28;20233;-50
2022/10/12 07:57:03;;;;;;;27.42;14.48;;;;;;;;;;5096375;28;20272;-49
2022/10/12 07:59:30;;;;;;;31.45;15.55;;;;;;;;;;5096118;28;20206;-49
2022/10/12 08:01:57;;;;;;;27.33;14.18;;;;;;;;;;5095657;28;20236;-49
2022/10/12 08:04:25;;;;;;;26.98;13.77;;;;;;;;;;5095997;28;20203;-49
2022/10/12 08:06:52;;;;;;;23.48;13.07;;;;;;;;;;5095681;28;20545;-50
2022/10/12 08:09:19;;;;;;;21.45;11.45;;;;;;;;;;5096190;28;20268;-50
2022/10/12 08:11:46;;;;;;;26.85;12.90;;;;;;;;;;5095603;28;20644;-49
2022/10/12 08:14:14;;;;;;;21.00;10.40;;;;;;;;;;5095470;28;20656;-50
2022/10/12 08:16:42;;;;;;;21.00;10.93;;;;;;;;;;5095906;28;20199;-49
2022/10/12 08:19:10;;;;;;;28.85;12.90;;;;;;;;;;5095457;28;20199;-50
2022/10/12 08:21:37;;;;;;;24.05;10.85;;;;;;;;;;5095690;28;20202;-49
2022/10/12 08:24:05;;;;;;;30.42;11.40;;;;;;;;;;5095636;28;20263;-49
2022/10/12 08:26:32;;;;;;;25.92;10.98;;;;;;;;;;5096031;28;20206;-50
2022/10/12 08:29:01;;;;;;;29.08;10.15;;;;;;;;;;5095035;28;20202;-49
2022/10/12 08:31:28;;;;;;;24.98;10.43;;;;;;;;;;5095504;28;20203;-50
2022/10/12 08:33:56;;;;;;;23.48;10.93;;;;;;;;;;5095372;28;20226;-49
2022/10/12 08:36:23;;;;;;;21.70;10.55;;;;;;;;;;5095465;28;20214;-49
2022/10/12 08:38:54;;;;;;;16.98;7.95;;;;;;;;;;5095570;28;20252;-50
2022/10/12 08:41:34;;;;;;;22.42;9.20;;;;;;;;;;5095409;28;20210;-50
2022/10/12 08:44:31;;;;;;;19.77;8.20;;;;;;;;;;5095384;28;20265;-49
2022/10/12 08:47:09;;;;;;;17.27;7.55;;;;;;;;;;5095888;28;20245;-50
2022/10/12 08:49:39;;;;;;;20.63;8.30;;;;;;;;;;5077648;28;20233;-50
2022/10/12 08:52:17;;;;;;;18.85;6.88;;;;;;;;;;5094966;28;20206;-49
2022/10/12 08:54:44;;;;;;;13.35;6.20;;;;;;;;;;5077334;28;20226;-49
2022/10/12 08:57:16;;;;;;;20.45;7.72;;;;;;;;;;5095172;28;20199;-50
2022/10/12 08:59:44;;;;;;;17.50;7.30;;;;;;;;;;5095228;28;20287;-50
2022/10/12 09:02:29;;;;;;;14.48;6.63;;;;;;;;;;5060068;28;20637;-50
2022/10/12 09:05:43;;;;;;;14.10;6.03;;;;;;;;;;5095336;28;20202;-49
2022/10/12 09:08:23;;;;;;;16.65;5.88;;;;;;;;;;5093788;28;20198;-50
2022/10/12 09:10:59;;;;;;;14.68;5.78;;;;;;;;;;5095159;28;20208;-49
2022/10/12 09:13:39;;;;;;;17.58;6.00;;;;;;;;;;5094906;28;20731;-50
2022/10/12 09:16:25;;;;;;;16.05;6.10;;;;;;;;;;5076706;28;20198;-50
2022/10/12 09:18:56;;;;;;;12.18;5.53;;;;;;;;;;5077596;28;20239;-50
2022/10/12 09:21:25;;;;;;;12.85;5.10;;;;;;;;;;5077522;28;20543;-50
2022/10/12 09:23:55;;;;;;;15.90;5.78;;;;;;;;;;5094731;28;20198;-50
2022/10/12 09:26:33;;;;;;;11.88;5.10;;;;;;;;;;5077438;28;20209;-51
2022/10/12 09:29:02;;;;;;;14.27;4.53;;;;;;;;;;5094848;28;20277;-54
2022/10/12 09:31:47;;;;;;;14.63;3.92;;;;;;;;;;5077031;28;20268;-51
2022/10/12 09:34:15;;;;;;;12.10;4.55;;;;;;;;;;5094488;28;20214;-50
2022/10/12 09:36:45;;;;;;;12.80;4.18;;;;;;;;;;5077476;28;20206;-50
2022/10/12 09:39:16;;;;;;;14.50;4.20;;;;;;;;;;5076313;28;20199;-51
2022/10/12 09:41:45;;;;;;;15.18;3.90;;;;;;;;;;5077245;28;20207;-54
2022/10/12 09:44:21;;;;;;;9.07;3.80;;;;;;;;;;5094484;28;20211;-51
2022/10/12 09:46:59;;;;;;;11.15;3.63;;;;;;;;;;5094471;28;20210;-52
2022/10/12 09:49:49;;;;;;;11.23;3.13;;;;;;;;;;5094536;28;20204;-53
2022/10/12 09:52:18;;;;;;;13.07;3.35;;;;;;;;;;5094406;28;20636;-52
2022/10/12 09:54:59;;;;;;;14.15;2.97;;;;;;;;;;5093280;28;20214;-50
2022/10/12 09:57:36;;;;;;;13.07;3.40;;;;;;;;;;5094635;28;20651;-51
2022/10/12 10:00:07;;;;;;;9.70;3.78;;;;;;;;;;5092955;28;20637;-53
2022/10/12 10:02:47;;;;;;;13.70;2.83;;;;;;;;;;5094251;28;20627;-51
2022/10/12 10:05:25;;;;;;;10.50;2.45;;;;;;;;;;5092974;28;20640;-49
2022/10/12 10:07:53;;;;;;;7.75;2.83;;;;;;;;;;5094301;28;20666;-51
2022/10/12 10:10:23;;;;;;;17.67;2.80;;;;;;;;;;5074831;28;20194;-54
2022/10/12 10:12:58;;;;;;;13.13;2.88;;;;;;;;;;5092493;28;20625;-51
2022/10/12 10:15:38;;;;;;;9.55;2.42;;;;;;;;;;5075726;28;20226;-49
2022/10/12 10:18:15;;;;;;;10.35;2.42;;;;;;;;;;5076750;28;20202;-49
2022/10/12 10:20:49;;;;;;;9.68;2.10;;;;;;;;;;5076698;28;20225;-50
2022/10/12 10:23:34;;;;;;;9.98;2.10;;;;;;;;;;5093701;28;20210;-53
2022/10/12 10:26:03;;;;;;;14.65;3.55;;;;;;;;;;5094388;28;20206;-51
2022/10/12 10:28:36;;;;;;;12.55;3.05;;;;;;;;;;5096068;28;20241;-49
2022/10/12 10:31:06;;;;;;;6.53;1.90;;;;;;;;;;5097963;28;20191;-50
2022/10/12 10:33:34;;;;;;;7.50;2.38;;;;;;;;;;5079189;28;20198;-51
2022/10/12 10:36:06;;;;;;;8.60;2.50;;;;;;;;;;5097077;28;20222;-54
2022/10/12 10:39:15;;;;;;;8.57;2.40;;;;;;;;;;5097402;28;20199;-53
2022/10/12 10:41:42;;;;;;;9.68;2.28;;;;;;;;;;5066860;28;20228;-53
2022/10/12 10:44:30;;;;;;;11.65;2.35;;;;;;;;;;5097272;28;20633;-49
2022/10/12 10:47:03;;;;;;;9.15;2.42;;;;;;;;;;5096342;28;20226;-52
2022/10/12 10:49:38;;;;;;;14.15;2.35;;;;;;;;;;5080410;28;20209;-50
2022/10/12 10:52:29;;;;;;;11.38;2.38;;;;;;;;;;5097310;28;20208;-52
2022/10/12 10:55:09;;;;;;;11.05;2.08;;;;;;;;;;5064061;28;20222;-50
2022/10/12 11:00:50;;;;;;;13.63;2.97;;;;;;;;;;4427185;23;20253;-63
2022/10/12 11:03:25;;;;;;;15.02;4.03;;;;;;;;;;4968418;28;20226;-63
2022/10/12 11:06:03;;;;;;;10.80;3.08;;;;;;;;;;4966194;28;20626;-64
2022/10/12 11:08:33;;;;;;;11.60;2.80;;;;;;;;;;4964393;28;20196;-63
2022/10/12 11:11:10;;;;;;;14.43;2.75;;;;;;;;;;4966456;28;20873;-63
2022/10/12 11:13:40;;;;;;;9.18;2.42;;;;;;;;;;4963793;28;20195;-64
2022/10/12 11:16:25;;;;;;;9.23;2.40;;;;;;;;;;4965016;28;20595;-64
2022/10/12 11:18:55;;;;;;;6.05;2.75;;;;;;;;;;4963113;28;20272;-63
2022/10/12 11:21:35;;;;;;;10.10;2.53;;;;;;;;;;4967046;28;20221;-63
2022/10/12 11:24:16;;;;;;;12.00;2.35;;;;;;;;;;4965981;28;20203;-64
2022/10/12 11:26:54;;;;;;;10.13;2.63;;;;;;;;;;4964121;28;20206;-64
2022/10/12 11:29:21;;;;;;;8.23;2.13;;;;;;;;;;4965604;28;20634;-60
2022/10/12 11:32:15;;;;;;;11.27;2.70;;;;;;;;;;4964233;28;20199;-65
2022/10/12 11:34:52;;;;;;;12.80;2.25;;;;;;;;;;4966355;28;20289;-66
2022/10/12 11:37:23;;;;;;;7.32;2.20;;;;;;;;;;4971508;28;20765;-66
2022/10/12 11:39:52;;;;;;;8.50;2.25;;;;;;;;;;4966805;28;20203;-66
2022/10/12 11:42:27;;;;;;;9.25;2.28;;;;;;;;;;4965672;28;20267;-69
2022/10/12 11:44:55;;;;;;;11.77;2.97;;;;;;;;;;4963705;28;20199;-66
2022/10/12 11:47:46;;;;;;;8.63;2.40;;;;;;;;;;4965159;28;20250;-64
2022/10/12 11:50:31;;;;;;;11.82;2.20;;;;;;;;;;4963871;28;20212;-63
2022/10/12 11:53:00;;;;;;;11.57;2.40;;;;;;;;;;4964254;28;20505;-64
2022/10/12 11:56:00;;;;;;;8.18;2.13;;;;;;;;;;4966675;28;20281;-63
2022/10/12 11:58:30;;;;;;;10.38;2.10;;;;;;;;;;4966635;28;20241;-64
2022/10/12 12:01:35;;;;;;;11.45;2.47;;;;;;;;;;4960966;28;20223;-65
2022/10/12 12:04:23;;;;;;;10.02;2.28;;;;;;;;;;4965756;28;20187;-66
2022/10/12 12:07:37;;;;;;;12.70;1.75;;;;;;;;;;4966425;28;20269;-67
2022/10/12 12:10:36;;;;;;;11.00;2.13;;;;;;;;;;4962425;28;20214;-65
2022/10/12 12:13:11;;;;;;;9.65;2.17;;;;;;;;;;4966895;28;20213;-64
2022/10/12 12:15:40;;;;;;;9.93;2.20;;;;;;;;;;4965907;28;20318;-66
2022/10/12 12:18:12;;;;;;;10.00;2.55;;;;;;;;;;4964194;28;20215;-66
2022/10/12 12:20:42;;;;;;;8.93;2.28;;;;;;;;;;4964122;28;20204;-66
2022/10/12 12:23:37;;;;;;;6.15;2.00;;;;;;;;;;4965128;28;20245;-64
2022/10/12 12:26:10;;;;;;;10.75;2.47;;;;;;;;;;4960626;28;20664;-66
2022/10/12 12:28:47;;;;;;;8.80;1.83;;;;;;;;;;4962258;28;20203;-65
2022/10/12 12:31:26;;;;;;;10.65;2.28;;;;;;;;;;4967104;28;20648;-63
2022/10/12 12:34:05;;;;;;;8.80;2.30;;;;;;;;;;4973235;28;20209;-66
2022/10/12 12:36:44;;;;;;;12.45;2.13;;;;;;;;;;4955280;28;21492;-67
2022/10/12 12:39:25;;;;;;;7.72;1.63;;;;;;;;;;4959174;28;20670;-70
2022/10/12 12:41:56;;;;;;;7.93;1.95;;;;;;;;;;4955139;28;20227;-66
2022/10/12 12:44:41;;;;;;;8.05;2.33;;;;;;;;;;4957262;28;20680;-66
2022/10/12 12:47:08;;;;;;;15.88;2.53;;;;;;;;;;4960069;28;20270;-64
2022/10/12 12:50:32;;;;;;;10.20;2.20;;;;;;;;;;4961700;28;20234;-65
2022/10/12 12:53:13;;;;;;;13.02;2.20;;;;;;;;;;4964482;28;20222;-67
2022/10/12 12:56:03;;;;;;;12.68;2.20;;;;;;;;;;4961695;28;20563;-65
2022/10/12 12:59:03;;;;;;;11.05;2.72;;;;;;;;;;4962197;28;20270;-66
2022/10/12 13:01:49;;;;;;;12.30;2.80;;;;;;;;;;4883745;28;20230;-66
2022/10/12 13:04:32;;;;;;;10.73;2.92;;;;;;;;;;4961269;28;20223;-64
2022/10/12 13:07:00;;;;;;;9.65;2.22;;;;;;;;;;4961898;28;20223;-63
2022/10/12 13:09:45;;;;;;;13.35;3.88;;;;;;;;;;4959509;28;20215;-65
2022/10/12 13:12:32;;;;;;;11.23;2.05;;;;;;;;;;4963818;28;20563;-66
2022/10/12 13:15:24;;;;;;;8.60;2.30;;;;;;;;;;4959913;28;20230;-64
2022/10/12 13:18:29;;;;;;;14.77;2.53;;;;;;;;;;4962672;28;20234;-65
2022/10/12 13:21:17;;;;;;;11.20;2.17;;;;;;;;;;4945768;28;20228;-65
2022/10/12 13:23:47;;;;;;;14.95;2.28;;;;;;;;;;4960810;28;20235;-64
2022/10/12 13:26:21;;;;;;;10.40;2.03;;;;;;;;;;4962345;28;20308;-68
2022/10/12 13:28:49;;;;;;;10.10;2.15;;;;;;;;;;4962260;28;20285;-66
2022/10/12 13:31:35;;;;;;;10.55;1.92;;;;;;;;;;4961790;28;20314;-65
2022/10/12 13:34:06;;;;;;;7.18;1.73;;;;;;;;;;4959574;28;20221;-66
2022/10/12 13:36:35;;;;;;;11.93;2.20;;;;;;;;;;4960718;28;20268;-67
2022/10/12 13:39:17;;;;;;;6.03;2.00;;;;;;;;;;4962217;28;20298;-63
2022/10/12 13:41:45;;;;;;;7.70;2.10;;;;;;;;;;4962230;28;20286;-65
2022/10/12 13:44:25;;;;;;;8.15;2.03;;;;;;;;;;4963208;28;20678;-65
2022/10/12 13:46:57;;;;;;;12.70;2.88;;;;;;;;;;4961806;28;20254;-69
2022/10/12 13:49:27;;;;;;;11.05;3.03;;;;;;;;;;4954827;28;20227;-66
2022/10/12 13:51:59;;;;;;;7.78;3.05;;;;;;;;;;4954276;28;20644;-67
2022/10/12 13:54:38;;;;;;;8.82;2.65;;;;;;;;;;4959217;28;20228;-65
2022/10/12 13:57:40;;;;;;;11.00;3.45;;;;;;;;;;4954655;28;20653;-64
2022/10/12 14:00:13;;;;;;;17.73;2.90;;;;;;;;;;4960836;28;20250;-64
2022/10/12 14:02:41;;;;;;;14.50;2.50;;;;;;;;;;4965772;28;20399;-64
2022/10/12 14:05:18;;;;;;;43.90;10.23;;;;;;;;;;4966955;28;20309;-63
2022/10/12 14:07:45;;;;;;;15.40;3.85;;;;;;;;;;4964158;28;20218;-63
2022/10/12 14:10:33;;;;;;;13.52;2.45;;;;;;;;;;4966691;28;20218;-63
2022/10/12 14:13:01;;;;;;;8.27;2.30;;;;;;;;;;4963504;28;20236;-64
2022/10/12 14:15:32;;;;;;;11.95;2.75;;;;;;;;;;4962912;28;20222;-64
2022/10/12 14:17:59;;;;;;;8.82;2.13;;;;;;;;;;4964850;28;20233;-64
2022/10/12 14:20:33;;;;;;;9.55;2.45;;;;;;;;;;4963511;28;20589;-60
2022/10/12 14:23:03;;;;;;;11.52;2.70;;;;;;;;;;4962309;28;20894;-66
2022/10/12 14:25:30;;;;;;;12.98;2.90;;;;;;;;;;4966692;28;20222;-65
2022/10/12 14:28:17;;;;;;;104.63;22.65;;;;;;;;;;4967010;28;20609;-63
2022/10/12 14:30:51;;;;;;;32.65;7.60;;;;;;;;;;4963277;28;20563;-62
2022/10/12 14:33:18;;;;;;;43.05;7.22;;;;;;;;;;4965196;28;20234;-70
2022/10/12 14:35:47;;;;;;;19.98;4.72;;;;;;;;;;4964798;28;20315;-68
2022/10/12 14:38:39;;;;;;;17.17;4.93;;;;;;;;;;4963813;28;20321;-70
2022/10/12 14:41:33;;;;;;;13.20;3.80;;;;;;;;;;4963903;28;20230;-69
2022/10/12 14:44:12;;;;;;;15.35;3.05;;;;;;;;;;4955968;29;20227;-69
2022/10/12 14:47:01;;;;;;;13.30;2.63;;;;;;;;;;4956225;28;20246;-69
2022/10/12 14:49:43;;;;;;;10.73;3.70;;;;;;;;;;4956778;29;20220;-69
2022/10/12 14:52:17;;;;;;;14.73;4.53;;;;;;;;;;4937212;29;20223;-69
2022/10/12 14:54:44;;;;;;;40.53;9.68;;;;;;;;;;4956693;29;20228;-68
2022/10/12 14:57:15;;;;;;;32.72;8.25;;;;;;;;;;4963939;28;20298;-67
2022/10/12 14:59:42;;;;;;;23.48;7.68;;;;;;;;;;4964923;28;20255;-66